Time;durP1;ratioP1;P1;durP2;ratioP2;P2;SDS_P1;SDS_P2;PMS_P1;PMS_P2;Temp;Humidity;BMP_temperature;BMP_pressure;BME280_temperature;BME280_humidity;BME280_pressure;Samples;Min_cycle;Max_cycle;Signal;HPM_P1;HPM_P2
2022/04/24 00:00:45;;;;;;;5.50;0.80;;;;;;;14.08;74.44;100165.88;4929959;29;20256;-83
2022/04/24 00:03:11;;;;;;;0.70;0.40;;;;;;;13.58;74.95;100091.41;4929934;29;20103;-84
2022/04/24 00:05:38;;;;;;;1.90;0.45;;;;;;;14.11;73.81;100162.03;4929450;29;20074;-84
2022/04/24 00:08:05;;;;;;;0.40;0.40;;;;;;;13.77;73.65;100119.56;4929732;29;20054;-85
2022/04/24 00:10:32;;;;;;;2.60;0.60;;;;;;;14.10;73.87;100163.03;4929259;29;20060;-85
2022/04/24 00:12:59;;;;;;;2.63;0.50;;;;;;;13.76;72.84;100113.41;4930455;29;20047;-83
2022/04/24 00:15:25;;;;;;;2.08;0.65;;;;;;;13.96;73.09;100145.88;4930603;29;20414;-84
2022/04/24 00:17:52;;;;;;;3.03;0.63;;;;;;;13.98;72.68;100140.34;4945376;28;20055;-84
2022/04/24 00:20:19;;;;;;;1.45;0.38;;;;;;;13.80;72.42;100120.03;4929393;29;20349;-85
2022/04/24 00:22:45;;;;;;;1.10;0.68;;;;;;;13.43;74.30;100089.41;4930200;29;20478;-85
2022/04/24 00:25:12;;;;;;;0.68;0.60;;;;;;;13.90;72.98;100147.38;4948233;29;20055;-85
2022/04/24 00:27:39;;;;;;;2.30;0.75;;;;;;;13.85;72.68;100149.72;4948018;28;20058;-85
2022/04/24 00:30:06;;;;;;;1.63;0.40;;;;;;;13.59;74.63;100130.41;4948135;28;20047;-85
2022/04/24 00:32:33;;;;;;;2.03;0.57;;;;;;;13.68;75.17;100162.25;4948165;28;20425;-85
2022/04/24 00:34:59;;;;;;;0.55;0.50;;;;;;;13.35;74.96;100134.75;4949284;29;20055;-85
2022/04/24 00:37:27;;;;;;;2.00;0.60;;;;;;;13.61;74.92;100189.75;4948009;28;20051;-85
2022/04/24 00:39:54;;;;;;;1.40;0.60;;;;;;;13.59;74.04;100173.94;4949413;28;20371;-85
2022/04/24 00:42:20;;;;;;;1.35;0.43;;;;;;;13.49;74.26;100164.41;4949286;28;20069;-85
2022/04/24 00:44:47;;;;;;;1.75;0.98;;;;;;;13.37;75.14;100151.38;4948991;28;20548;-86
2022/04/24 00:47:17;;;;;;;1.58;0.70;;;;;;;12.89;75.37;100083.69;4949447;29;20044;-84
2022/04/24 00:49:45;;;;;;;0.82;0.63;;;;;;;12.53;76.12;100056.50;4948116;28;20078;-85
2022/04/24 00:52:12;;;;;;;1.40;0.90;;;;;;;12.83;75.67;100116.31;4949226;28;20058;-85
2022/04/24 00:54:39;;;;;;;1.02;0.70;;;;;;;13.32;75.32;100200.88;4949276;28;20047;-85
2022/04/24 00:57:12;;;;;;;1.42;1.08;;;;;;;12.72;75.21;100105.94;4948278;28;20051;-85
2022/04/24 00:59:39;;;;;;;2.28;1.00;;;;;;;13.11;75.75;100185.34;4947701;28;20090;-85
2022/04/24 01:02:08;;;;;;;1.58;0.88;;;;;;;13.21;75.83;100196.69;4947266;28;20059;-85
2022/04/24 01:04:35;;;;;;;1.25;0.88;;;;;;;13.16;76.40;100207.81;4948055;28;20050;-84
2022/04/24 01:07:03;;;;;;;2.45;0.60;;;;;;;12.58;76.78;100132.22;4949598;28;20048;-84
2022/04/24 01:09:32;;;;;;;2.47;1.00;;;;;;;13.02;76.98;100211.13;4948040;28;20114;-84
2022/04/24 01:11:59;;;;;;;2.05;1.15;;;;;;;12.50;77.59;100118.03;4949276;28;20070;-84
2022/04/24 01:14:27;;;;;;;3.65;1.70;;;;;;;12.59;77.35;100120.56;4949019;28;20054;-84
2022/04/24 01:16:54;;;;;;;2.08;1.08;;;;;;;13.04;76.65;100183.31;4948471;28;20051;-83
2022/04/24 01:19:21;;;;;;;1.30;0.70;;;;;;;13.03;75.87;100171.00;4947562;28;20051;-86
2022/04/24 01:21:49;;;;;;;1.55;0.95;;;;;;;13.24;74.68;100189.16;4948506;28;20512;-84
2022/04/24 01:24:27;;;;;;;1.98;1.00;;;;;;;13.10;74.76;100181.81;4934837;29;20052;-85
2022/04/24 01:26:54;;;;;;;2.45;0.80;;;;;;;13.28;73.75;100179.06;4928298;29;20047;-85
2022/04/24 01:29:21;;;;;;;2.45;0.80;;;;;;;13.18;73.75;100167.66;4928182;29;20062;-84
2022/04/24 01:31:48;;;;;;;3.03;0.90;;;;;;;13.12;71.21;100142.50;4928404;29;20079;-84
2022/04/24 01:34:17;;;;;;;4.20;0.90;;;;;;;13.15;73.54;100170.66;4927983;29;20486;-85
2022/04/24 01:36:43;;;;;;;0.90;0.50;;;;;;;12.86;74.16;100131.13;4929285;29;20410;-85
2022/04/24 01:39:10;;;;;;;1.75;0.60;;;;;;;13.15;74.42;100184.00;4928120;29;20482;-85
2022/04/24 01:41:37;;;;;;;1.42;0.80;;;;;;;12.96;73.40;100138.00;4928056;29;20284;-85
2022/04/24 01:44:05;;;;;;;3.67;1.00;;;;;;;13.25;72.46;100174.00;4928012;29;20055;-84
2022/04/24 01:46:32;;;;;;;0.70;0.70;;;;;;;12.93;72.12;100111.66;4928272;29;20052;-84
2022/04/24 01:48:58;;;;;;;2.70;0.70;;;;;;;13.19;72.94;100177.34;4929464;28;20058;-83
2022/04/24 01:51:26;;;;;;;2.75;1.60;;;;;;;12.71;73.51;100114.94;4929201;29;20059;-84
2022/04/24 01:53:53;;;;;;;2.85;1.23;;;;;;;13.13;73.90;100185.97;4928378;29;20177;-84
2022/04/24 01:56:19;;;;;;;1.75;0.90;;;;;;;12.93;73.22;100154.28;4930543;29;20136;-83
2022/04/24 01:58:46;;;;;;;1.92;0.73;;;;;;;12.77;72.87;100106.31;4930564;29;20055;-84
2022/04/24 02:01:13;;;;;;;1.08;0.80;;;;;;;13.12;72.65;100168.34;4929123;29;20058;-85
2022/04/24 02:03:40;;;;;;;2.30;0.70;;;;;;;12.70;72.71;100123.94;4929000;29;20123;-84
2022/04/24 02:06:06;;;;;;;4.28;3.08;;;;;;;12.96;72.27;100164.66;4927998;29;20051;-83
2022/04/24 02:08:36;;;;;;;3.80;1.30;;;;;;;13.12;71.96;100194.97;4929259;28;20056;-84
2022/04/24 02:11:06;;;;;;;5.72;1.15;;;;;;;13.20;72.58;100185.19;4928733;28;20051;-84
2022/04/24 02:13:33;;;;;;;4.03;1.23;;;;;;;12.97;71.94;100155.63;4927568;29;20043;-84
2022/04/24 02:16:00;;;;;;;4.78;0.93;;;;;;;12.92;71.89;100144.63;4929143;29;20052;-84
2022/04/24 02:18:27;;;;;;;1.55;0.80;;;;;;;13.17;71.29;100188.16;4927802;29;20047;-83
2022/04/24 02:20:54;;;;;;;1.20;0.90;;;;;;;13.14;72.35;100171.69;4929637;29;20051;-84
2022/04/24 02:23:20;;;;;;;3.58;1.30;;;;;;;13.08;72.79;100169.66;4934450;28;20063;-85
2022/04/24 02:25:47;;;;;;;1.05;0.65;;;;;;;12.88;72.04;100140.63;4946983;28;20090;-84
2022/04/24 02:28:14;;;;;;;3.92;1.20;;;;;;;13.13;72.78;100164.66;4947927;29;20499;-84
2022/04/24 02:30:41;;;;;;;1.48;0.88;;;;;;;13.12;71.86;100163.00;4946509;28;20059;-85
2022/04/24 02:33:09;;;;;;;1.70;0.70;;;;;;;12.93;71.98;100140.13;4946914;28;20066;-85
2022/04/24 02:35:36;;;;;;;1.77;0.85;;;;;;;13.08;73.22;100169.66;4946802;28;20319;-84
2022/04/24 02:38:03;;;;;;;1.50;1.00;;;;;;;12.64;73.19;100105.94;4948328;28;20501;-83
2022/04/24 02:40:29;;;;;;;2.97;1.13;;;;;;;12.88;72.62;100151.28;4946623;28;20615;-83
2022/04/24 02:42:56;;;;;;;3.00;1.30;;;;;;;12.60;74.87;100106.25;4946627;28;20051;-84
2022/04/24 02:45:23;;;;;;;3.70;1.00;;;;;;;12.72;74.19;100104.13;4946771;28;20055;-84
2022/04/24 02:47:49;;;;;;;1.17;0.80;;;;;;;12.50;74.83;100078.94;4946815;28;20545;-84
2022/04/24 02:50:17;;;;;;;4.35;1.08;;;;;;;12.69;74.17;100098.28;4947725;28;20047;-84
2022/04/24 02:52:54;;;;;;;2.13;0.90;;;;;;;13.00;71.44;100117.19;4946554;28;20054;-85
2022/04/24 02:55:23;;;;;;;2.50;0.90;;;;;;;12.76;71.82;100083.31;4946633;28;20074;-85
2022/04/24 02:57:50;;;;;;;3.95;1.10;;;;;;;12.97;71.68;100129.00;4946234;28;20456;-85
2022/04/24 03:00:25;;;;;;;1.58;0.88;;;;;;;12.82;72.71;100122.66;4950327;28;20062;-84
2022/04/24 03:02:53;;;;;;;3.08;0.90;;;;;;;12.85;72.69;100135.63;4949556;28;20222;-85
2022/04/24 03:05:21;;;;;;;5.18;0.93;;;;;;;12.31;71.59;100057.91;4950398;28;20054;-85
2022/04/24 03:07:48;;;;;;;1.83;0.60;;;;;;;12.28;73.04;100058.22;4950082;28;20051;-85
2022/04/24 03:10:19;;;;;;;2.92;1.15;;;;;;;12.75;73.65;100140.28;4949684;28;20047;-84
2022/04/24 03:12:46;;;;;;;2.72;0.70;;;;;;;12.36;71.94;100053.78;4949910;29;20208;-85
2022/04/24 03:15:14;;;;;;;2.83;0.63;;;;;;;12.94;71.21;100134.66;4949988;28;20122;-85
2022/04/24 03:17:42;;;;;;;3.58;0.90;;;;;;;13.04;69.23;100108.69;4949583;29;20044;-85
2022/04/24 03:20:11;;;;;;;3.05;0.55;;;;;;;12.89;68.12;100067.72;4949566;28;20557;-83
2022/04/24 03:22:38;;;;;;;3.20;0.80;;;;;;;12.95;68.41;100066.22;4949371;28;20597;-84
2022/04/24 03:25:07;;;;;;;1.92;0.77;;;;;;;12.82;68.85;100051.56;4930184;29;20060;-84
2022/04/24 03:27:34;;;;;;;2.67;0.82;;;;;;;12.73;71.15;100071.16;4930553;29;20052;-84
2022/04/24 03:30:02;;;;;;;2.58;0.95;;;;;;;12.84;70.52;100099.34;4930294;29;20388;-83
2022/04/24 03:32:32;;;;;;;5.88;1.23;;;;;;;12.75;71.13;100095.00;4930302;29;20044;-84
2022/04/24 03:34:59;;;;;;;4.35;0.95;;;;;;;12.45;72.72;100059.09;4930210;29;20430;-84
2022/04/24 03:37:26;;;;;;;1.42;0.90;;;;;;;12.18;72.04;100027.28;4931499;29;20353;-83
2022/04/24 03:39:53;;;;;;;4.53;0.90;;;;;;;12.47;71.23;100071.25;4929993;29;20052;-84
2022/04/24 03:42:21;;;;;;;1.83;0.93;;;;;;;12.46;71.44;100074.94;4930222;29;20060;-85
2022/04/24 03:44:48;;;;;;;1.88;0.85;;;;;;;12.73;71.81;100115.63;4930141;29;20051;-85
2022/04/24 03:47:14;;;;;;;3.58;1.00;;;;;;;12.62;72.29;100108.75;4930054;29;20051;-84
2022/04/24 03:49:41;;;;;;;4.07;1.00;;;;;;;12.00;71.00;99986.63;4930064;29;20537;-84
2022/04/24 03:52:08;;;;;;;3.03;0.77;;;;;;;12.86;69.54;100092.00;4931776;29;20047;-85
2022/04/24 03:54:35;;;;;;;1.58;0.65;;;;;;;12.86;68.72;100070.69;4930336;29;20050;-84
2022/04/24 03:57:03;;;;;;;3.22;0.95;;;;;;;12.89;67.93;100069.53;4931552;29;20055;-84
2022/04/24 03:59:29;;;;;;;1.33;0.70;;;;;;;12.72;67.76;100044.69;4930776;29;20047;-84
2022/04/24 04:01:56;;;;;;;1.75;0.88;;;;;;;12.76;67.58;100052.19;4932348;29;20412;-84
2022/04/24 04:04:25;;;;;;;3.85;0.73;;;;;;;12.92;66.65;100067.38;4948464;29;20051;-84
2022/04/24 04:06:52;;;;;;;1.35;0.73;;;;;;;12.83;67.25;100079.84;4950935;28;20055;-85
2022/04/24 04:09:19;;;;;;;2.05;0.80;;;;;;;12.71;69.81;100075.00;4956608;28;20127;-84
2022/04/24 04:11:45;;;;;;;2.72;0.98;;;;;;;12.58;71.26;100084.28;4958857;28;20055;-84
2022/04/24 04:14:12;;;;;;;1.55;0.90;;;;;;;12.35;72.30;100053.91;4961765;28;20349;-84
2022/04/24 04:16:40;;;;;;;5.30;1.45;;;;;;;12.24;72.59;100057.72;4954553;28;20055;-84
2022/04/24 04:19:07;;;;;;;2.20;0.60;;;;;;;12.35;71.26;100089.34;4949485;28;20074;-84
2022/04/24 04:21:34;;;;;;;3.42;1.20;;;;;;;12.18;72.63;100069.84;4946201;28;20409;-84
2022/04/24 04:24:01;;;;;;;1.40;1.00;;;;;;;11.88;73.43;100009.19;4943981;28;20050;-85
2022/04/24 04:26:27;;;;;;;2.75;0.93;;;;;;;12.36;72.72;100083.06;4927561;29;20052;-84
2022/04/24 04:28:54;;;;;;;2.92;0.82;;;;;;;12.36;69.62;100071.56;4939967;29;20054;-84
2022/04/24 04:31:21;;;;;;;0.77;0.43;;;;;;;12.44;68.94;100052.97;4948021;28;20087;-83
2022/04/24 04:33:48;;;;;;;2.10;0.70;;;;;;;12.64;66.37;100082.78;4946168;28;20405;-83
2022/04/24 04:36:14;;;;;;;2.00;1.08;;;;;;;12.54;66.70;100066.97;4947863;28;20047;-84
2022/04/24 04:38:41;;;;;;;3.45;0.82;;;;;;;12.44;65.96;100034.31;4946200;28;20320;-83
2022/04/24 04:41:07;;;;;;;3.90;0.90;;;;;;;12.84;65.45;100094.03;4948649;28;20581;-83
2022/04/24 04:43:34;;;;;;;3.65;0.90;;;;;;;12.69;65.24;100061.00;4947413;28;20051;-83
2022/04/24 04:46:01;;;;;;;1.52;0.60;;;;;;;12.63;65.88;100059.84;4946251;28;20051;-83
2022/04/24 04:48:28;;;;;;;2.97;0.70;;;;;;;12.33;68.37;100023.97;4946585;28;20082;-84
2022/04/24 04:50:55;;;;;;;1.17;0.60;;;;;;;12.77;65.65;100063.69;4946465;28;20058;-86
2022/04/24 04:53:22;;;;;;;3.72;0.90;;;;;;;12.99;64.86;100099.53;4947844;28;20461;-84
2022/04/24 04:55:49;;;;;;;2.40;0.73;;;;;;;13.00;64.21;100091.34;4947530;28;20051;-85
2022/04/24 04:58:17;;;;;;;2.88;0.98;;;;;;;13.04;64.12;100092.69;4934606;28;20056;-84
2022/04/24 05:00:43;;;;;;;1.38;0.65;;;;;;;12.88;63.77;100052.72;4930032;28;20058;-84
2022/04/24 05:03:10;;;;;;;3.10;0.88;;;;;;;13.30;63.58;100098.91;4926907;29;20146;-83
2022/04/24 05:05:37;;;;;;;3.50;0.68;;;;;;;13.40;62.89;100097.75;4926878;29;20461;-84
2022/04/24 05:08:04;;;;;;;5.40;0.93;;;;;;;13.28;62.61;100068.91;4927013;29;20051;-84
2022/04/24 05:10:31;;;;;;;3.85;0.60;;;;;;;13.50;62.52;100086.09;4927371;28;20048;-84
2022/04/24 05:12:58;;;;;;;5.05;0.93;;;;;;;13.07;62.15;100018.75;4928084;29;20051;-83
2022/04/24 05:15:25;;;;;;;1.60;0.70;;;;;;;13.41;62.52;100091.41;4929181;29;20105;-84
2022/04/24 05:17:52;;;;;;;2.67;1.00;;;;;;;13.53;62.07;100091.09;4926686;29;20056;-83
2022/04/24 05:20:20;;;;;;;2.60;1.00;;;;;;;13.53;61.47;100086.56;4944060;28;20154;-83
2022/04/24 05:22:46;;;;;;;2.95;0.68;;;;;;;13.41;61.91;100077.25;4945563;28;20063;-84
2022/04/24 05:25:14;;;;;;;2.85;1.00;;;;;;;13.60;62.99;100097.41;4945662;28;20061;-83
2022/04/24 05:27:41;;;;;;;2.10;0.88;;;;;;;13.61;61.16;100059.06;4945077;28;20043;-82
2022/04/24 05:30:09;;;;;;;2.17;1.05;;;;;;;13.65;60.74;100057.72;4946975;28;20054;-84
2022/04/24 05:32:40;;;;;;;3.05;0.70;;;;;;;13.66;61.44;100070.06;4946937;28;20055;-82
2022/04/24 05:35:08;;;;;;;7.80;0.95;;;;;;;13.71;61.94;100067.69;4945585;29;20054;-83
2022/04/24 05:37:35;;;;;;;5.10;1.05;;;;;;;13.79;62.73;100058.88;4946415;28;20055;-83
2022/04/24 05:40:02;;;;;;;4.55;0.75;;;;;;;13.52;62.03;99998.72;4945584;28;20055;-83
2022/04/24 05:42:29;;;;;;;3.50;0.98;;;;;;;14.03;60.05;100056.13;4946297;28;20202;-83
2022/04/24 05:45:04;;;;;;;5.97;1.15;;;;;;;14.01;59.32;100042.13;4936970;28;20401;-83
2022/04/24 05:47:31;;;;;;;3.85;1.15;;;;;;;14.28;58.33;100082.72;4926002;29;20101;-84
2022/04/24 05:49:57;;;;;;;2.22;0.73;;;;;;;14.14;59.68;100076.28;4927376;29;20052;-84
2022/04/24 05:52:27;;;;;;;5.13;1.13;;;;;;;14.28;60.09;100118.25;4926936;29;20454;-83
2022/04/24 05:54:54;;;;;;;4.63;1.27;;;;;;;13.74;60.57;100027.38;4926096;29;20064;-84
2022/04/24 05:57:21;;;;;;;3.70;0.85;;;;;;;14.21;61.81;100116.47;4925660;29;20418;-83
2022/04/24 05:59:47;;;;;;;3.90;0.85;;;;;;;14.24;62.20;100121.44;4925499;29;20048;-83
2022/04/24 06:02:14;;;;;;;2.03;0.60;;;;;;;14.22;59.96;100104.75;4926900;28;20060;-84
2022/04/24 06:04:40;;;;;;;5.18;1.17;;;;;;;14.45;60.13;100142.25;4927214;29;20048;-83
2022/04/24 06:07:09;;;;;;;2.17;0.90;;;;;;;14.28;59.84;100118.25;4927474;29;20052;-84
2022/04/24 06:09:36;;;;;;;0.82;0.60;;;;;;;14.27;61.08;100164.66;4927076;29;20615;-83
2022/04/24 06:12:03;;;;;;;4.50;1.30;;;;;;;14.13;60.40;100146.69;4926106;29;20056;-83
2022/04/24 06:14:30;;;;;;;6.43;1.25;;;;;;;14.06;61.43;100159.03;4925830;29;20051;-83
2022/04/24 06:16:56;;;;;;;2.75;1.13;;;;;;;13.96;62.66;100164.56;4925784;29;20044;-83
2022/04/24 06:19:23;;;;;;;2.53;1.20;;;;;;;13.32;63.14;100060.41;4925923;29;20135;-84
2022/04/24 06:21:50;;;;;;;2.47;1.40;;;;;;;14.08;63.05;100154.38;4925971;29;20066;-84
2022/04/24 06:24:16;;;;;;;1.42;1.33;;;;;;;13.90;63.83;100144.69;4938733;29;20054;-83
2022/04/24 06:26:44;;;;;;;4.18;1.70;;;;;;;13.79;64.40;100149.59;4945243;28;20066;-83
2022/04/24 06:29:12;;;;;;;1.70;1.48;;;;;;;13.80;64.22;100152.06;4945410;28;20094;-82
2022/04/24 06:31:39;;;;;;;3.20;1.65;;;;;;;13.77;64.97;100147.06;4944600;28;20402;-82
2022/04/24 06:34:06;;;;;;;1.92;1.83;;;;;;;13.72;65.18;100133.41;4945479;28;20327;-83
2022/04/24 06:36:33;;;;;;;2.13;1.50;;;;;;;13.68;65.45;100140.06;4948489;28;20043;-83
2022/04/24 06:39:00;;;;;;;3.05;1.75;;;;;;;13.51;65.93;100103.75;4948606;28;20047;-84
2022/04/24 06:41:27;;;;;;;2.50;1.98;;;;;;;13.62;66.87;100149.59;4948522;28;20113;-84
2022/04/24 06:43:54;;;;;;;2.67;2.15;;;;;;;13.72;66.17;100138.75;4948376;28;20585;-84
2022/04/24 06:46:21;;;;;;;2.47;1.85;;;;;;;13.49;67.62;100109.25;4950199;28;20486;-81
2022/04/24 06:48:48;;;;;;;3.65;2.22;;;;;;;13.52;67.63;100113.41;4948672;28;20137;-83
2022/04/24 06:51:14;;;;;;;4.40;2.20;;;;;;;13.73;67.14;100140.41;4949396;28;20066;-84
2022/04/24 06:53:41;;;;;;;4.95;2.30;;;;;;;13.55;67.59;100097.09;4948232;29;20068;-83
2022/04/24 06:56:08;;;;;;;2.75;2.03;;;;;;;13.77;66.62;100136.41;4950237;28;20059;-83
2022/04/24 06:58:37;;;;;;;3.08;2.40;;;;;;;14.00;66.12;100151.69;4948214;28;20098;-83
2022/04/24 07:01:11;;;;;;;5.35;2.42;;;;;;;13.92;67.16;100135.72;4948239;28;20051;-84
2022/04/24 07:03:46;;;;;;;2.40;2.20;;;;;;;14.00;66.61;100141.03;4949867;28;20139;-84
2022/04/24 07:06:13;;;;;;;3.17;2.50;;;;;;;13.59;68.01;100096.59;4948138;28;20063;-83
2022/04/24 07:08:40;;;;;;;3.83;2.67;;;;;;;14.03;67.37;100140.69;4947943;28;20051;-82
2022/04/24 07:11:06;;;;;;;5.07;2.97;;;;;;;14.00;67.95;100149.03;4947942;28;20063;-83
2022/04/24 07:13:33;;;;;;;3.38;3.08;;;;;;;13.78;67.31;100108.72;4948988;28;20460;-83
2022/04/24 07:16:00;;;;;;;3.92;2.97;;;;;;;13.54;68.20;100074.06;4948068;28;20086;-84
2022/04/24 07:18:28;;;;;;;2.90;2.70;;;;;;;13.98;67.90;100143.03;4948190;28;20055;-83
2022/04/24 07:20:56;;;;;;;3.58;2.88;;;;;;;14.11;67.76;100170.03;4948880;28;20043;-83
2022/04/24 07:23:23;;;;;;;3.65;3.10;;;;;;;14.10;68.38;100157.69;4946735;28;20418;-83
2022/04/24 07:25:52;;;;;;;3.45;3.15;;;;;;;13.99;69.26;100158.06;4947987;28;20044;-84
2022/04/24 07:28:19;;;;;;;4.03;3.53;;;;;;;14.12;68.84;100147.66;4938298;28;20082;-82
2022/04/24 07:30:46;;;;;;;3.42;3.13;;;;;;;14.12;69.19;100147.66;4941322;28;20191;-83
2022/04/24 07:33:13;;;;;;;4.82;3.80;;;;;;;14.10;68.98;100142.53;4929859;29;20060;-84
2022/04/24 07:35:40;;;;;;;3.78;3.33;;;;;;;14.13;69.51;100183.19;4928757;29;20107;-82
2022/04/24 07:38:08;;;;;;;4.25;3.75;;;;;;;14.13;69.26;100168.03;4928199;29;20055;-83
2022/04/24 07:40:36;;;;;;;4.47;4.18;;;;;;;14.11;69.42;100188.72;4928301;29;20071;-82
2022/04/24 07:43:05;;;;;;;4.95;4.15;;;;;;;13.75;69.92;100154.41;4943141;28;20051;-80
2022/04/24 07:45:33;;;;;;;5.00;4.60;;;;;;;14.11;70.23;100213.56;4946821;28;20054;-82
2022/04/24 07:48:01;;;;;;;5.13;4.72;;;;;;;14.19;69.95;100199.38;4947240;28;20051;-84
2022/04/24 07:50:29;;;;;;;5.28;4.78;;;;;;;14.38;69.51;100206.19;4947919;28;20520;-83
2022/04/24 07:52:57;;;;;;;5.03;4.53;;;;;;;14.28;69.72;100192.19;4949507;28;20077;-83
2022/04/24 07:55:24;;;;;;;5.80;5.32;;;;;;;14.54;68.58;100224.06;4954923;28;20345;-83
2022/04/24 07:57:55;;;;;;;5.15;4.63;;;;;;;14.51;68.32;100213.66;4956774;28;20473;-83
2022/04/24 08:00:23;;;;;;;5.45;4.95;;;;;;;14.28;68.49;100193.03;4955820;28;20698;-84
2022/04/24 08:03:00;;;;;;;5.45;4.85;;;;;;;13.98;68.81;100159.91;4936862;29;20592;-84
2022/04/24 08:05:32;;;;;;;5.25;4.68;;;;;;;14.41;69.19;100234.38;4932185;29;20071;-82
2022/04/24 08:08:00;;;;;;;4.90;4.53;;;;;;;14.10;69.76;100224.41;4931594;29;20383;-84
2022/04/24 08:10:30;;;;;;;3.17;2.88;;;;;;;14.31;69.47;100256.75;4948085;28;20299;-84
2022/04/24 08:12:57;;;;;;;2.83;2.10;;;;;;;12.95;67.64;100067.03;4948666;28;20497;-83
2022/04/24 08:15:24;;;;;;;2.03;1.70;;;;;;;13.55;67.13;100171.75;4946446;28;20055;-84
2022/04/24 08:17:51;;;;;;;2.25;1.90;;;;;;;14.07;67.82;100264.78;4945936;28;20745;-82
2022/04/24 08:20:18;;;;;;;2.90;1.85;;;;;;;14.09;67.95;100257.44;4947955;28;20251;-83
2022/04/24 08:22:51;;;;;;;2.35;1.17;;;;;;;14.23;66.63;100264.78;4946305;28;20277;-82
2022/04/24 08:25:20;;;;;;;2.40;1.10;;;;;;;14.41;65.87;100271.78;4945380;29;20043;-83
2022/04/24 08:27:51;;;;;;;7.82;1.38;;;;;;;14.51;65.24;100272.41;4945842;28;20280;-82
2022/04/24 08:30:21;;;;;;;1.10;1.00;;;;;;;14.54;64.91;100269.47;4947628;28;20047;-82
2022/04/24 08:32:48;;;;;;;1.75;1.10;;;;;;;14.48;64.76;100246.06;4946723;28;20051;-83
2022/04/24 08:35:17;;;;;;;2.45;1.23;;;;;;;14.73;63.58;100270.88;4946772;28;20109;-84
2022/04/24 08:37:45;;;;;;;2.92;1.27;;;;;;;14.69;63.62;100259.72;4946282;28;20047;-82
2022/04/24 08:40:14;;;;;;;2.00;1.27;;;;;;;14.77;63.10;100250.84;4946765;28;20493;-83
2022/04/24 08:42:41;;;;;;;6.63;1.15;;;;;;;14.90;62.28;100277.00;4947307;28;20236;-83
2022/04/24 08:45:11;;;;;;;0.98;0.70;;;;;;;13.88;62.18;100145.88;4946929;28;20174;-81
2022/04/24 08:47:38;;;;;;;5.18;0.93;;;;;;;14.39;62.10;100241.72;4947560;28;20043;-83
2022/04/24 08:50:05;;;;;;;1.58;0.75;;;;;;;14.61;62.63;100274.94;4946836;28;20066;-84
2022/04/24 08:52:32;;;;;;;0.95;0.50;;;;;;;14.48;62.14;100288.78;4946055;28;20054;-83
2022/04/24 08:55:00;;;;;;;1.58;0.57;;;;;;;14.39;61.35;100301.31;4946367;28;20051;-82
2022/04/24 08:57:26;;;;;;;2.90;0.50;;;;;;;14.26;63.05;100303.66;4947398;28;20059;-85
2022/04/24 08:59:54;;;;;;;1.88;0.60;;;;;;;14.07;65.06;100319.00;4947068;28;20058;-86
2022/04/24 09:02:41;;;;;;;2.00;0.50;;;;;;;13.61;66.50;100273.25;4948290;28;20051;-85
2022/04/24 09:05:09;;;;;;;2.13;0.68;;;;;;;13.78;67.14;100324.81;4945854;28;20055;-85
2022/04/24 09:07:36;;;;;;;0.60;0.50;;;;;;;12.98;69.09;100229.22;4947440;28;20136;-82
2022/04/24 09:10:11;;;;;;;0.65;0.55;;;;;;;13.44;68.61;100311.56;4946005;28;20153;-84
2022/04/24 09:12:39;;;;;;;1.73;0.70;;;;;;;12.86;68.92;100240.34;4961829;28;20051;-83
2022/04/24 09:15:07;;;;;;;4.78;0.68;;;;;;;13.12;71.03;100315.75;4946002;28;20062;-84
2022/04/24 09:17:35;;;;;;;2.67;0.80;;;;;;;12.38;72.07;100221.31;4946051;29;20505;-84
2022/04/24 09:20:16;;;;;;;1.67;0.80;;;;;;;12.90;72.99;100319.78;4947126;28;20062;-85
2022/04/24 09:22:43;;;;;;;2.60;1.17;;;;;;;12.68;73.10;100299.88;4947311;28;20066;-85
2022/04/24 09:25:12;;;;;;;1.77;0.80;;;;;;;12.72;73.16;100311.88;4947200;28;20700;-83
2022/04/24 09:27:39;;;;;;;2.45;0.82;;;;;;;12.67;75.32;100321.31;4945935;28;20062;-86
2022/04/24 09:30:14;;;;;;;3.42;1.05;;;;;;;12.61;74.91;100304.16;4936929;29;20118;-86
2022/04/24 09:32:49;;;;;;;1.05;0.70;;;;;;;12.74;75.05;100325.88;4943956;28;20434;-86
2022/04/24 09:35:47;;;;;;;1.15;0.90;;;;;;;12.59;76.12;100316.78;4943177;29;20056;-86
2022/04/24 09:38:19;;;;;;;1.95;0.77;;;;;;;12.81;75.80;100339.38;4919731;29;20329;-87
2022/04/24 09:40:48;;;;;;;2.45;0.85;;;;;;;12.17;75.11;100224.34;4927528;29;20271;-87
2022/04/24 09:43:17;;;;;;;1.27;0.73;;;;;;;12.31;73.13;100222.94;4927255;29;20111;-84
2022/04/24 09:45:49;;;;;;;1.42;0.82;;;;;;;12.93;73.60;100335.47;4943321;28;20052;-85
2022/04/24 09:48:19;;;;;;;1.52;0.68;;;;;;;12.45;74.72;100277.41;4928482;29;20201;-83
2022/04/24 09:50:50;;;;;;;0.80;0.50;;;;;;;12.22;72.90;100230.03;4927817;29;20058;-86
2022/04/24 09:53:20;;;;;;;0.50;0.50;;;;;;;11.34;71.95;100095.22;4943717;28;20055;-86
2022/04/24 09:55:50;;;;;;;1.83;0.60;;;;;;;11.77;72.66;100194.59;4927610;29;20115;-84
2022/04/24 09:58:20;;;;;;;0.63;0.30;;;;;;;12.68;72.25;100320.34;4943880;28;20058;-85
2022/04/24 10:00:50;;;;;;;0.80;0.57;;;;;;;12.46;73.74;100287.91;4942862;28;20538;-85
2022/04/24 10:03:19;;;;;;;1.52;0.60;;;;;;;12.62;72.98;100300.47;4924739;29;20067;-85
2022/04/24 10:05:48;;;;;;;1.65;0.90;;;;;;;12.42;73.25;100289.22;4926790;29;20062;-85
2022/04/24 10:08:16;;;;;;;3.15;0.60;;;;;;;11.97;73.79;100205.91;4928005;29;20051;-84
2022/04/24 10:10:50;;;;;;;1.33;0.60;;;;;;;12.49;73.19;100294.75;4931687;29;20066;-84
2022/04/24 10:13:20;;;;;;;1.75;0.75;;;;;;;12.61;73.64;100347.59;4933209;29;20060;-87
2022/04/24 10:15:53;;;;;;;2.25;1.00;;;;;;;12.61;74.08;100360.91;4953708;28;20054;-85
2022/04/24 10:18:54;;;;;;;1.50;1.10;;;;;;;12.57;75.74;100374.69;4950588;28;20050;-84
2022/04/24 10:21:37;;;;;;;1.02;0.70;;;;;;;12.44;73.41;100329.81;4951104;28;20062;-86
2022/04/24 10:24:11;;;;;;;1.08;0.65;;;;;;;12.44;72.85;100331.66;4943980;28;20047;-86
2022/04/24 10:26:39;;;;;;;1.90;1.17;;;;;;;11.25;74.77;100157.25;4950428;28;20106;-86
2022/04/24 10:29:09;;;;;;;2.17;0.90;;;;;;;11.75;77.75;100254.25;4950921;28;20055;-87
2022/04/24 10:31:47;;;;;;;4.20;0.98;;;;;;;11.70;79.02;100256.50;4950886;28;20357;-87
2022/04/24 10:34:16;;;;;;;1.55;1.02;;;;;;;12.28;78.39;100346.53;4950115;28;20051;-86
2022/04/24 10:37:01;;;;;;;1.50;1.05;;;;;;;12.43;78.97;100330.81;4953090;28;20059;-87
2022/04/24 10:39:29;;;;;;;1.95;0.93;;;;;;;12.01;78.95;100232.19;4951361;28;20105;-85
2022/04/24 10:42:08;;;;;;;0.50;0.40;;;;;;;12.66;75.75;100320.50;4952584;28;20083;-87
2022/04/24 10:44:35;;;;;;;1.05;0.32;;;;;;;12.68;73.45;100304.38;4952725;28;20051;-86
2022/04/24 10:47:12;;;;;;;0.32;0.25;;;;;;;12.21;71.95;100207.06;4968041;28;20098;-86
2022/04/24 10:49:39;;;;;;;0.60;0.52;;;;;;;12.27;73.67;100224.22;4951611;28;20093;-86
2022/04/24 10:52:07;;;;;;;0.20;0.20;;;;;;;11.43;74.39;100071.34;4954345;28;20061;-84
2022/04/24 10:54:38;;;;;;;0.47;0.28;;;;;;;11.55;70.37;100072.75;4958662;28;20062;-85
2022/04/24 10:57:23;;;;;;;3.60;1.52;;;;;;;11.92;73.75;100095.66;4960352;28;20566;-86
2022/04/24 10:59:52;;;;;;;1.92;0.80;;;;;;;13.48;72.85;100312.09;4958730;28;20055;-84
2022/04/24 11:02:28;;;;;;;0.35;0.30;;;;;;;13.64;70.53;100307.63;4951335;28;20051;-85
2022/04/24 11:05:07;;;;;;;0.60;0.60;;;;;;;13.42;71.91;100229.09;4951924;28;20052;-82
2022/04/24 11:07:34;;;;;;;1.85;1.40;;;;;;;14.10;71.10;100277.78;4933364;28;20063;-83
2022/04/24 11:10:09;;;;;;;1.55;0.70;;;;;;;14.51;70.95;100304.47;4934792;29;20413;-85
2022/04/24 11:12:37;;;;;;;1.00;0.70;;;;;;;14.69;72.05;100274.94;4933346;29;20048;-83
2022/04/24 11:15:10;;;;;;;1.27;0.52;;;;;;;14.57;68.90;100202.31;4933034;29;20056;-84
2022/04/24 11:17:38;;;;;;;1.48;0.73;;;;;;;14.72;68.20;100200.59;4950211;28;20051;-85
2022/04/24 11:20:13;;;;;;;0.50;0.50;;;;;;;14.74;66.93;100177.22;4934715;29;20044;-84
2022/04/24 11:22:48;;;;;;;1.08;0.60;;;;;;;15.02;64.02;100184.75;4934060;29;20474;-83
2022/04/24 11:25:20;;;;;;;0.80;0.50;;;;;;;15.40;64.08;100195.56;4915827;29;20048;-84
2022/04/24 11:28:05;;;;;;;0.47;0.47;;;;;;;15.97;64.02;100234.44;4912479;29;20040;-85
2022/04/24 11:30:33;;;;;;;2.55;0.55;;;;;;;16.32;64.49;100259.75;4932033;29;20058;-84